Ohshima Kazumaru — JD2908 — position and weather

sailwx.info

Track history (hours):
 
Tides and Currents Weather Stations Pressure Air Temp Water Temp Dewpoint Dewpoint Depression Visibility Wind Speed Wind Dir Waves Ship Positions

Ohshima Kazumaru

Last reported at 2014-Dec-18 12:31 UTC. Time now 2014-Dec-19 14:27 UTC.
Position N 35°14' E 139°46'.

Length 69 m; draft 4 m.

Type: Cargo ship. MMSI: 431000925.

Date/timePositionNaut miles runAvg speedWind from/ knotsBaromVisibWave heightAir tempDewpointWater temp
2014-Dec-18 12:31N 35°14' E 139°46'1111.6
2014-Dec-18 11:33N 35°25' E 139°44'7 1.1
2014-Dec-18 05:16N 35°30' E 139°49'0 0.0
2014-Dec-18 02:31N 35°30' E 139°49'2 0.1
2014-Dec-17 10:27N 35°32' E 139°47'0 0.0
2014-Dec-17 04:12N 35°32' E 139°47'0 0.0
2014-Dec-16 13:15N 35°32' E 139°47'0 0.0
2014-Dec-15 23:33N 35°31' E 139°48'1 1.4
2014-Dec-15 22:33N 35°31' E 139°49'6 6.3
2014-Dec-15 21:33N 35°25' E 139°46'1110.9
2014-Dec-15 20:33N 35°14' E 139°47'  
2014-Dec-12 12:31N 34°37' E 134°58'1010.3
2014-Dec-12 11:33N 34°36' E 135°10'1110.9
2014-Dec-12 10:33N 34°38' E 135°23'3 3.4
2014-Dec-12 09:32N 34°38' E 135°27'0 0.0
2014-Dec-12 08:33N 34°38' E 135°27'1 0.3
2014-Dec-12 06:33N 34°38' E 135°27'2 2.5
2014-Dec-12 05:34N 34°40' E 135°24'0 0.0
2014-Dec-12 04:33N 34°40' E 135°24'0 0.0
2014-Dec-12 03:33N 34°40' E 135°24'0 0.0
2014-Dec-12 02:33N 34°40' E 135°24'0 0.0
2014-Dec-12 01:33N 34°40' E 135°24'0 0.0
2014-Dec-12 00:33N 34°40' E 135°24'0 0.0
2014-Dec-11 23:33N 34°40' E 135°24'0 0.0
2014-Dec-11 22:30N 34°40' E 135°24'0 0.0
2014-Dec-11 21:30N 34°40' E 135°24'0 0.0
2014-Dec-11 20:25N 34°40' E 135°24'0 0.0
2014-Dec-11 19:30N 34°40' E 135°24'0 0.0
2014-Dec-11 18:33N 34°40' E 135°24'0 0.0
2014-Dec-11 17:33N 34°40' E 135°24'0 0.0
2014-Dec-11 16:33N 34°40' E 135°24'0 0.0
2014-Dec-11 15:28N 34°40' E 135°24'0 0.0
2014-Dec-11 14:32N 34°40' E 135°24'0 0.0
2014-Dec-11 13:33N 34°40' E 135°24'0 0.0
2014-Dec-11 12:33N 34°40' E 135°24'0 0.0
2014-Dec-11 11:33N 34°40' E 135°24'0 0.0
2014-Dec-11 10:33N 34°40' E 135°24'0 0.0
2014-Dec-11 09:33N 34°40' E 135°24'0 0.0
2014-Dec-11 08:32N 34°40' E 135°24'0 0.0
2014-Dec-11 07:25N 34°40' E 135°24'0 0.0
2014-Dec-11 06:32N 34°40' E 135°24'0 0.0
2014-Dec-11 05:26N 34°40' E 135°24'0 0.0
2014-Dec-11 04:33N 34°40' E 135°24'0 0.0
2014-Dec-11 03:33N 34°40' E 135°24'0 0.0
2014-Dec-11 02:33N 34°40' E 135°24'0 0.0
2014-Dec-11 01:33N 34°40' E 135°24'0 0.0
2014-Dec-11 00:33N 34°40' E 135°24'0 0.0
2014-Dec-10 23:31N 34°40' E 135°24'0 0.0
2014-Dec-10 22:33N 34°40' E 135°24'3 2.3
2014-Dec-10 21:27N 34°37' E 135°23'0 0.0
2014-Dec-10 20:32N 34°37' E 135°23'0 0.0
2014-Dec-10 19:33N 34°37' E 135°23'0 0.0
2014-Dec-10 18:33N 34°37' E 135°23'0 0.0
2014-Dec-10 17:33N 34°37' E 135°23'4 4.4
2014-Dec-10 16:32N 34°36' E 135°17'1211.8
2014-Dec-10 15:33N 34°36' E 135°03'  
Track history (hours):
 
Tides and Currents Weather Stations Pressure Air Temp Water Temp Dewpoint Dewpoint Depression Visibility Wind Speed Wind Dir Waves Ship Positions

Ohshima Kazumaru

Last reported at 2014-Dec-18 12:31 UTC. Time now 2014-Dec-19 14:27 UTC.
Position N 35°14' E 139°46'.

Length 69 m; draft 4 m.

Type: Cargo ship. MMSI: 431000925.

Date/timePositionNaut miles runAvg speedWind from/ knotsBaromVisibWave heightAir tempDewpointWater temp
2014-Dec-18 12:31N 35°14' E 139°46'1111.6
2014-Dec-18 11:33N 35°25' E 139°44'7 1.1
2014-Dec-18 05:16N 35°30' E 139°49'0 0.0
2014-Dec-18 02:31N 35°30' E 139°49'2 0.1
2014-Dec-17 10:27N 35°32' E 139°47'0 0.0
2014-Dec-17 04:12N 35°32' E 139°47'0 0.0
2014-Dec-16 13:15N 35°32' E 139°47'0 0.0
2014-Dec-15 23:33N 35°31' E 139°48'1 1.4
2014-Dec-15 22:33N 35°31' E 139°49'6 6.3
2014-Dec-15 21:33N 35°25' E 139°46'1110.9
2014-Dec-15 20:33N 35°14' E 139°47'  
2014-Dec-12 12:31N 34°37' E 134°58'1010.3
2014-Dec-12 11:33N 34°36' E 135°10'1110.9
2014-Dec-12 10:33N 34°38' E 135°23'3 3.4
2014-Dec-12 09:32N 34°38' E 135°27'0 0.0
2014-Dec-12 08:33N 34°38' E 135°27'1 0.3
2014-Dec-12 06:33N 34°38' E 135°27'2 2.5
2014-Dec-12 05:34N 34°40' E 135°24'0 0.0
2014-Dec-12 04:33N 34°40' E 135°24'0 0.0
2014-Dec-12 03:33N 34°40' E 135°24'0 0.0
2014-Dec-12 02:33N 34°40' E 135°24'0 0.0
2014-Dec-12 01:33N 34°40' E 135°24'0 0.0
2014-Dec-12 00:33N 34°40' E 135°24'0 0.0
2014-Dec-11 23:33N 34°40' E 135°24'0 0.0
2014-Dec-11 22:30N 34°40' E 135°24'0 0.0
2014-Dec-11 21:30N 34°40' E 135°24'0 0.0
2014-Dec-11 20:25N 34°40' E 135°24'0 0.0
2014-Dec-11 19:30N 34°40' E 135°24'0 0.0
2014-Dec-11 18:33N 34°40' E 135°24'0 0.0
2014-Dec-11 17:33N 34°40' E 135°24'0 0.0
2014-Dec-11 16:33N 34°40' E 135°24'0 0.0
2014-Dec-11 15:28N 34°40' E 135°24'0 0.0
2014-Dec-11 14:32N 34°40' E 135°24'0 0.0
2014-Dec-11 13:33N 34°40' E 135°24'0 0.0
2014-Dec-11 12:33N 34°40' E 135°24'0 0.0
2014-Dec-11 11:33N 34°40' E 135°24'0 0.0
2014-Dec-11 10:33N 34°40' E 135°24'0 0.0
2014-Dec-11 09:33N 34°40' E 135°24'0 0.0
2014-Dec-11 08:32N 34°40' E 135°24'0 0.0
2014-Dec-11 07:25N 34°40' E 135°24'0 0.0
2014-Dec-11 06:32N 34°40' E 135°24'0 0.0
2014-Dec-11 05:26N 34°40' E 135°24'0 0.0
2014-Dec-11 04:33N 34°40' E 135°24'0 0.0
2014-Dec-11 03:33N 34°40' E 135°24'0 0.0
2014-Dec-11 02:33N 34°40' E 135°24'0 0.0
2014-Dec-11 01:33N 34°40' E 135°24'0 0.0
2014-Dec-11 00:33N 34°40' E 135°24'0 0.0
2014-Dec-10 23:31N 34°40' E 135°24'0 0.0
2014-Dec-10 22:33N 34°40' E 135°24'3 2.3
2014-Dec-10 21:27N 34°37' E 135°23'0 0.0
2014-Dec-10 20:32N 34°37' E 135°23'0 0.0
2014-Dec-10 19:33N 34°37' E 135°23'0 0.0
2014-Dec-10 18:33N 34°37' E 135°23'0 0.0
2014-Dec-10 17:33N 34°37' E 135°23'4 4.4
2014-Dec-10 16:32N 34°36' E 135°17'1211.8
2014-Dec-10 15:33N 34°36' E 135°03'  

Dump ship's entire track history